臺東航空站 - ATIS

METAR RCFN 140300Z 08009KT 030V110 9999 FEW025 33/25 Q1008 NOSIG RMK A2978=

站台狀態:Offline
最後更新:2022-08-14 11:00:02